sensor_id;sensor_type;location;lat;lon;timestamp;pressure;altitude;pressure_sealevel;temperature;humidity
53300;BME280;39187;48.476;8.310;2023-04-21T00:27:10;90744.72;;;1.21;100.00
53300;BME280;39187;48.476;8.310;2023-04-21T00:29:36;90742.41;;;1.12;100.00
53300;BME280;39187;48.476;8.310;2023-04-21T00:32:03;90731.88;;;1.02;100.00
53300;BME280;39187;48.476;8.310;2023-04-21T00:34:33;90731.44;;;0.96;100.00
53300;BME280;39187;48.476;8.310;2023-04-21T00:36:59;90724.72;;;0.95;100.00
53300;BME280;39187;48.476;8.310;2023-04-21T00:39:24;90719.88;;;1.01;100.00
53300;BME280;39187;48.476;8.310;2023-04-21T00:41:50;90722.47;;;0.94;100.00
53300;BME280;39187;48.476;8.310;2023-04-21T00:44:15;90718.03;;;1.01;100.00
53300;BME280;39187;48.476;8.310;2023-04-21T00:46:41;90720.19;;;0.89;100.00
53300;BME280;39187;48.476;8.310;2023-04-21T00:49:07;90716.16;;;1.05;100.00
53300;BME280;39187;48.476;8.310;2023-04-21T00:51:34;90703.41;;;1.04;100.00
53300;BME280;39187;48.476;8.310;2023-04-21T00:54:04;90711.63;;;0.95;100.00
53300;BME280;39187;48.476;8.310;2023-04-21T00:56:31;90712.34;;;0.92;100.00
53300;BME280;39187;48.476;8.310;2023-04-21T00:58:58;90709.31;;;0.83;100.00
53300;BME280;39187;48.476;8.310;2023-04-21T01:01:24;90713.75;;;0.79;100.00
53300;BME280;39187;48.476;8.310;2023-04-21T01:03:50;90710.72;;;0.73;100.00
53300;BME280;39187;48.476;8.310;2023-04-21T01:06:16;90719.34;;;0.70;100.00
53300;BME280;39187;48.476;8.310;2023-04-21T01:08:44;90715.88;;;0.59;100.00
53300;BME280;39187;48.476;8.310;2023-04-21T01:11:11;90721.59;;;0.75;100.00
53300;BME280;39187;48.476;8.310;2023-04-21T01:13:38;90721.91;;;0.63;100.00
53300;BME280;39187;48.476;8.310;2023-04-21T01:16:04;90727.44;;;0.58;100.00
53300;BME280;39187;48.476;8.310;2023-04-21T01:18:30;90723.00;;;0.62;100.00
53300;BME280;39187;48.476;8.310;2023-04-21T01:20:56;90733.84;;;0.64;100.00
53300;BME280;39187;48.476;8.310;2023-04-21T01:23:23;90739.06;;;0.61;100.00
53300;BME280;39187;48.476;8.310;2023-04-21T01:25:49;90729.31;;;0.54;100.00
53300;BME280;39187;48.476;8.310;2023-04-21T01:28:21;90731.50;;;0.49;100.00
53300;BME280;39187;48.476;8.310;2023-04-21T01:30:47;90735.94;;;0.41;100.00
53300;BME280;39187;48.476;8.310;2023-04-21T01:33:12;90736.75;;;0.52;100.00
53300;BME280;39187;48.476;8.310;2023-04-21T01:35:38;90732.31;;;0.56;100.00
53300;BME280;39187;48.476;8.310;2023-04-21T01:38:04;90740.13;;;0.53;100.00
53300;BME280;39187;48.476;8.310;2023-04-21T01:40:30;90738.72;;;0.62;100.00
53300;BME280;39187;48.476;8.310;2023-04-21T01:42:56;90740.59;;;0.62;100.00
53300;BME280;39187;48.476;8.310;2023-04-21T01:45:22;90735.00;;;0.63;100.00
53300;BME280;39187;48.476;8.310;2023-04-21T01:47:47;90742.03;;;0.56;100.00
53300;BME280;39187;48.476;8.310;2023-04-21T01:50:13;90741.63;;;0.50;100.00
53300;BME280;39187;48.476;8.310;2023-04-21T01:52:38;90735.94;;;0.41;100.00
53300;BME280;39187;48.476;8.310;2023-04-21T01:55:04;90741.16;;;0.41;100.00
53300;BME280;39187;48.476;8.310;2023-04-21T01:57:30;90735.97;;;0.45;100.00
53300;BME280;39187;48.476;8.310;2023-04-21T01:59:55;90739.06;;;0.57;100.00
53300;BME280;39187;48.476;8.310;2023-04-21T02:02:21;90739.44;;;0.59;100.00
53300;BME280;39187;48.476;8.310;2023-04-21T02:04:47;90738.88;;;0.36;100.00
53300;BME280;39187;48.476;8.310;2023-04-21T02:07:12;90736.28;;;0.39;100.00
53300;BME280;39187;48.476;8.310;2023-04-21T02:09:38;90735.88;;;0.34;100.00
53300;BME280;39187;48.476;8.310;2023-04-21T02:12:04;90737.50;;;0.49;100.00
53300;BME280;39187;48.476;8.310;2023-04-21T02:14:29;90743.38;;;0.39;100.00
53300;BME280;39187;48.476;8.310;2023-04-21T02:16:54;90749.28;;;0.29;100.00
53300;BME280;39187;48.476;8.310;2023-04-21T02:19:20;90747.38;;;0.26;100.00
53300;BME280;39187;48.476;8.310;2023-04-21T02:21:45;90754.16;;;0.30;100.00
53300;BME280;39187;48.476;8.310;2023-04-21T02:24:11;90747.00;;;0.24;100.00
53300;BME280;39187;48.476;8.310;2023-04-21T02:26:36;90744.75;;;0.26;100.00
53300;BME280;39187;48.476;8.310;2023-04-21T02:29:02;90747.09;;;0.34;100.00
53300;BME280;39187;48.476;8.310;2023-04-21T02:31:28;90745.16;;;0.28;100.00
53300;BME280;39187;48.476;8.310;2023-04-21T02:33:53;90742.63;;;0.35;100.00
53300;BME280;39187;48.476;8.310;2023-04-21T02:36:20;90739.22;;;0.31;100.00
53300;BME280;39187;48.476;8.310;2023-04-21T02:38:46;90739.94;;;0.28;100.00
53300;BME280;39187;48.476;8.310;2023-04-21T02:41:11;90748.88;;;0.27;100.00
53300;BME280;39187;48.476;8.310;2023-04-21T02:43:36;90739.53;;;0.26;100.00
53300;BME280;39187;48.476;8.310;2023-04-21T02:46:08;90737.22;;;0.17;100.00
53300;BME280;39187;48.476;8.310;2023-04-21T02:48:34;90738.34;;;0.16;100.00
53300;BME280;39187;48.476;8.310;2023-04-21T02:51:00;90742.91;;;0.26;100.00
53300;BME280;39187;48.476;8.310;2023-04-21T02:53:26;90738.88;;;0.36;100.00
53300;BME280;39187;48.476;8.310;2023-04-21T02:55:52;90742.25;;;0.36;100.00
53300;BME280;39187;48.476;8.310;2023-04-21T02:58:17;90736.28;;;0.36;100.00
53300;BME280;39187;48.476;8.310;2023-04-21T03:00:43;90741.38;;;0.22;100.00
53300;BME280;39187;48.476;8.310;2023-04-21T03:03:09;90733.94;;;0.27;100.00
53300;BME280;39187;48.476;8.310;2023-04-21T03:05:34;90737.31;;;0.28;100.00
53300;BME280;39187;48.476;8.310;2023-04-21T03:08:00;90734.75;;;0.31;100.00
53300;BME280;39187;48.476;8.310;2023-04-21T03:10:25;90726.94;;;0.38;100.00
53300;BME280;39187;48.476;8.310;2023-04-21T03:12:51;90731.53;;;0.52;100.00
53300;BME280;39187;48.476;8.310;2023-04-21T03:15:17;90733.81;;;0.57;100.00
53300;BME280;39187;48.476;8.310;2023-04-21T03:17:43;90731.53;;;0.52;100.00
53300;BME280;39187;48.476;8.310;2023-04-21T03:20:09;90728.31;;;0.69;100.00
53300;BME280;39187;48.476;8.310;2023-04-21T03:22:36;90729.13;;;0.84;100.00
53300;BME280;39187;48.476;8.310;2023-04-21T03:25:02;90734.03;;;0.89;100.00
53300;BME280;39187;48.476;8.310;2023-04-21T03:27:29;90737.97;;;0.65;100.00
53300;BME280;39187;48.476;8.310;2023-04-21T03:29:55;90740.22;;;0.63;100.00
53300;BME280;39187;48.476;8.310;2023-04-21T03:32:20;90742.50;;;0.68;100.00
53300;BME280;39187;48.476;8.310;2023-04-21T03:34:46;90745.25;;;0.38;100.00
53300;BME280;39187;48.476;8.310;2023-04-21T03:37:11;90751.56;;;0.34;100.00
53300;BME280;39187;48.476;8.310;2023-04-21T03:39:37;90745.25;;;0.38;100.00
53300;BME280;39187;48.476;8.310;2023-04-21T03:42:02;90742.59;;;0.31;100.00
53300;BME280;39187;48.476;8.310;2023-04-21T03:44:29;90740.34;;;0.30;100.00
53300;BME280;39187;48.476;8.310;2023-04-21T03:46:55;90739.25;;;0.34;100.00
53300;BME280;39187;48.476;8.310;2023-04-21T03:49:21;90732.56;;;0.40;100.00
53300;BME280;39187;48.476;8.310;2023-04-21T03:51:47;90736.06;;;0.59;100.00
53300;BME280;39187;48.476;8.310;2023-04-21T03:54:12;90728.59;;;0.61;100.00
53300;BME280;39187;48.476;8.310;2023-04-21T03:56:38;90722.31;;;0.69;100.00
53300;BME280;39187;48.476;8.310;2023-04-21T03:59:04;90719.75;;;0.79;100.00
53300;BME280;39187;48.476;8.310;2023-04-21T04:01:31;90723.53;;;0.86;100.00
53300;BME280;39187;48.476;8.310;2023-04-21T04:03:56;90715.66;;;0.82;100.00
53300;BME280;39187;48.476;8.310;2023-04-21T04:06:22;90716.81;;;0.88;100.00
53300;BME280;39187;48.476;8.310;2023-04-21T04:08:47;90720.16;;;0.85;100.00
53300;BME280;39187;48.476;8.310;2023-04-21T04:11:12;90719.75;;;0.79;100.00
53300;BME280;39187;48.476;8.310;2023-04-21T04:13:38;90717.88;;;0.76;100.00
53300;BME280;39187;48.476;8.310;2023-04-21T04:16:04;90718.31;;;0.89;100.00
53300;BME280;39187;48.476;8.310;2023-04-21T04:18:29;90717.53;;;0.82;100.00
53300;BME280;39187;48.476;8.310;2023-04-21T04:20:55;90718.69;;;0.88;100.00
53300;BME280;39187;48.476;8.310;2023-04-21T04:23:20;90719.44;;;0.88;100.00
53300;BME280;39187;48.476;8.310;2023-04-21T04:25:46;90708.66;;;1.00;100.00
53300;BME280;39187;48.476;8.310;2023-04-21T04:28:12;90709.44;;;1.08;100.00
53300;BME280;39187;48.476;8.310;2023-04-21T04:30:37;90711.31;;;1.07;100.00
53300;BME280;39187;48.476;8.310;2023-04-21T04:33:03;90703.81;;;1.06;100.00
53300;BME280;39187;48.476;8.310;2023-04-21T04:35:29;90707.59;;;1.08;100.00
53300;BME280;39187;48.476;8.310;2023-04-21T04:37:54;90710.59;;;1.17;100.00
53300;BME280;39187;48.476;8.310;2023-04-21T04:40:21;90707.66;;;1.30;100.00
53300;BME280;39187;48.476;8.310;2023-04-21T04:42:46;90704.69;;;1.31;100.00
53300;BME280;39187;48.476;8.310;2023-04-21T04:45:13;90709.16;;;1.27;100.00
53300;BME280;39187;48.476;8.310;2023-04-21T04:47:40;90704.28;;;1.26;100.00
53300;BME280;39187;48.476;8.310;2023-04-21T04:50:06;90713.25;;;1.25;100.00
53300;BME280;39187;48.476;8.310;2023-04-21T04:52:32;90706.91;;;1.29;100.00
53300;BME280;39187;48.476;8.310;2023-04-21T04:54:57;90715.91;;;1.32;100.00
53300;BME280;39187;48.476;8.310;2023-04-21T04:57:23;90709.56;;;1.33;100.00
53300;BME280;39187;48.476;8.310;2023-04-21T04:59:53;90721.88;;;1.25;100.00
53300;BME280;39187;48.476;8.310;2023-04-21T05:02:20;90714.41;;;1.27;100.00
53300;BME280;39187;48.476;8.310;2023-04-21T05:04:46;90712.16;;;1.26;100.00
53300;BME280;39187;48.476;8.310;2023-04-21T05:07:12;90720.41;;;1.35;100.00
53300;BME280;39187;48.476;8.310;2023-04-21T05:09:37;90717.78;;;1.28;100.00
53300;BME280;39187;48.476;8.310;2023-04-21T05:12:03;90720.38;;;1.24;100.00
53300;BME280;39187;48.476;8.310;2023-04-21T05:14:29;90716.25;;;1.19;100.00
53300;BME280;39187;48.476;8.310;2023-04-21T05:16:54;90720.72;;;1.19;100.00
53300;BME280;39187;48.476;8.310;2023-04-21T05:19:20;90723.00;;;1.24;100.00
53300;BME280;39187;48.476;8.310;2023-04-21T05:21:45;90730.09;;;1.24;100.00
53300;BME280;39187;48.476;8.310;2023-04-21T05:24:11;90739.88;;;1.30;100.00
53300;BME280;39187;48.476;8.310;2023-04-21T05:26:36;90732.78;;;1.34;100.00
53300;BME280;39187;48.476;8.310;2023-04-21T05:29:02;90736.13;;;1.35;100.00
53300;BME280;39187;48.476;8.310;2023-04-21T05:31:27;90733.53;;;1.35;100.00
53300;BME280;39187;48.476;8.310;2023-04-21T05:33:53;90736.56;;;1.40;100.00
53300;BME280;39187;48.476;8.310;2023-04-21T05:36:18;90733.94;;;1.47;100.00
53300;BME280;39187;48.476;8.310;2023-04-21T05:38:49;90739.59;;;1.49;100.00
53300;BME280;39187;48.476;8.310;2023-04-21T05:41:14;90742.59;;;1.51;100.00
53300;BME280;39187;48.476;8.310;2023-04-21T05:43:40;90736.28;;;1.63;100.00
53300;BME280;39187;48.476;8.310;2023-04-21T05:46:08;90741.28;;;2.04;100.00
53300;BME280;39187;48.476;8.310;2023-04-21T05:48:35;90738.72;;;2.78;100.00
53300;BME280;39187;48.476;8.310;2023-04-21T05:51:11;90746.13;;;3.40;100.00
53300;BME280;39187;48.476;8.310;2023-04-21T05:53:41;90745.53;;;3.98;100.00
53300;BME280;39187;48.476;8.310;2023-04-21T05:56:07;90746.22;;;4.75;100.00
53300;BME280;39187;48.476;8.310;2023-04-21T05:58:33;90751.28;;;5.00;100.00
53300;BME280;39187;48.476;8.310;2023-04-21T06:00:59;90741.63;;;5.64;100.00
53300;BME280;39187;48.476;8.310;2023-04-21T06:03:24;90744.38;;;6.22;100.00
53300;BME280;39187;48.476;8.310;2023-04-21T06:05:56;90741.22;;;6.88;100.00
53300;BME280;39187;48.476;8.310;2023-04-21T06:08:22;90742.44;;;7.73;100.00
53300;BME280;39187;48.476;8.310;2023-04-21T06:10:48;90741.00;;;8.47;96.63
53300;BME280;39187;48.476;8.310;2023-04-21T06:13:13;90744.22;;;8.74;91.88
53300;BME280;39187;48.476;8.310;2023-04-21T06:15:39;90737.09;;;9.04;89.28
53300;BME280;39187;48.476;8.310;2023-04-21T06:18:04;90741.09;;;9.28;86.09
53300;BME280;39187;48.476;8.310;2023-04-21T06:20:30;90739.22;;;9.57;83.91
53300;BME280;39187;48.476;8.310;2023-04-21T06:22:56;90733.28;;;9.82;84.26
53300;BME280;39187;48.476;8.310;2023-04-21T06:25:21;90734.34;;;9.85;82.41
53300;BME280;39187;48.476;8.310;2023-04-21T06:27:47;90735.38;;;10.45;79.78
53300;BME280;39187;48.476;8.310;2023-04-21T06:30:13;90726.97;;;10.34;77.96
53300;BME280;39187;48.476;8.310;2023-04-21T06:32:39;90732.13;;;10.79;76.44
53300;BME280;39187;48.476;8.310;2023-04-21T06:35:04;90733.75;;;10.22;76.57
53300;BME280;39187;48.476;8.310;2023-04-21T06:37:30;90727.00;;;10.72;74.76
53300;BME280;39187;48.476;8.310;2023-04-21T06:39:56;90720.09;;;10.74;73.65
53300;BME280;39187;48.476;8.310;2023-04-21T06:42:21;90725.50;;;11.09;73.88
53300;BME280;39187;48.476;8.310;2023-04-21T06:44:47;90733.09;;;10.98;71.06
53300;BME280;39187;48.476;8.310;2023-04-21T06:47:12;90731.75;;;11.40;69.59
53300;BME280;39187;48.476;8.310;2023-04-21T06:49:38;90719.63;;;11.86;67.53
53300;BME280;39187;48.476;8.310;2023-04-21T06:52:04;90730.75;;;10.62;68.37
53300;BME280;39187;48.476;8.310;2023-04-21T06:54:30;90721.81;;;10.68;71.13
53300;BME280;39187;48.476;8.310;2023-04-21T06:56:55;90728.13;;;10.33;71.54
53300;BME280;39187;48.476;8.310;2023-04-21T06:59:21;90730.13;;;10.00;73.67
53300;BME280;39187;48.476;8.310;2023-04-21T07:01:47;90732.53;;;9.82;74.71
53300;BME280;39187;48.476;8.310;2023-04-21T07:04:16;90730.81;;;10.04;72.53
53300;BME280;39187;48.476;8.310;2023-04-21T07:06:42;90739.19;;;10.31;73.20
53300;BME280;39187;48.476;8.310;2023-04-21T07:09:08;90734.53;;;10.06;72.84
53300;BME280;39187;48.476;8.310;2023-04-21T07:11:33;90736.09;;;10.20;72.85
53300;BME280;39187;48.476;8.310;2023-04-21T07:13:59;90730.94;;;9.84;74.04
53300;BME280;39187;48.476;8.310;2023-04-21T07:16:27;90726.81;;;10.79;72.18
53300;BME280;39187;48.476;8.310;2023-04-21T07:18:53;90725.97;;;11.07;69.73
53300;BME280;39187;48.476;8.310;2023-04-21T07:21:18;90723.81;;;11.15;69.05
53300;BME280;39187;48.476;8.310;2023-04-21T07:23:44;90731.00;;;11.40;67.12
53300;BME280;39187;48.476;8.310;2023-04-21T07:26:09;90718.06;;;11.63;66.05
53300;BME280;39187;48.476;8.310;2023-04-21T07:28:36;90722.88;;;11.56;64.83
53300;BME280;39187;48.476;8.310;2023-04-21T07:31:02;90727.56;;;11.05;67.17
53300;BME280;39187;48.476;8.310;2023-04-21T07:33:27;90726.44;;;11.40;65.65
53300;BME280;39187;48.476;8.310;2023-04-21T07:35:53;90721.88;;;12.10;64.89
53300;BME280;39187;48.476;8.310;2023-04-21T07:38:18;90719.75;;;12.26;63.04
53300;BME280;39187;48.476;8.310;2023-04-21T07:40:44;90714.97;;;11.78;63.70
53300;BME280;39187;48.476;8.310;2023-04-21T07:43:09;90725.66;;;11.99;64.77
53300;BME280;39187;48.476;8.310;2023-04-21T07:45:35;90721.56;;;11.26;63.28
53300;BME280;39187;48.476;8.310;2023-04-21T07:48:01;90732.94;;;11.26;64.01
53300;BME280;39187;48.476;8.310;2023-04-21T07:50:26;90730.06;;;11.34;65.47
53300;BME280;39187;48.476;8.310;2023-04-21T07:52:52;90727.31;;;11.24;65.89
53300;BME280;39187;48.476;8.310;2023-04-21T07:55:17;90727.88;;;12.01;63.02
53300;BME280;39187;48.476;8.310;2023-04-21T07:57:43;90721.03;;;12.65;60.76
53300;BME280;39187;48.476;8.310;2023-04-21T08:00:09;90728.06;;;12.07;60.29
53300;BME280;39187;48.476;8.310;2023-04-21T08:02:35;90728.31;;;11.99;61.84
53300;BME280;39187;48.476;8.310;2023-04-21T08:05:00;90733.78;;;12.18;60.65
53300;BME280;39187;48.476;8.310;2023-04-21T08:07:26;90736.06;;;11.72;62.31
53300;BME280;39187;48.476;8.310;2023-04-21T08:09:51;90733.66;;;11.99;61.13
53300;BME280;39187;48.476;8.310;2023-04-21T08:12:17;90732.00;;;11.68;61.64
53300;BME280;39187;48.476;8.310;2023-04-21T08:14:42;90731.94;;;12.27;60.83
53300;BME280;39187;48.476;8.310;2023-04-21T08:17:08;90732.47;;;12.75;59.20
53300;BME280;39187;48.476;8.310;2023-04-21T08:19:33;90727.34;;;12.28;59.22
53300;BME280;39187;48.476;8.310;2023-04-21T08:21:59;90723.88;;;12.71;59.00
53300;BME280;39187;48.476;8.310;2023-04-21T08:24:24;90725.34;;;13.43;57.53
53300;BME280;39187;48.476;8.310;2023-04-21T08:26:50;90735.94;;;13.55;56.19
53300;BME280;39187;48.476;8.310;2023-04-21T08:29:15;90724.50;;;12.22;60.18
53300;BME280;39187;48.476;8.310;2023-04-21T08:31:41;90716.84;;;12.86;56.29
53300;BME280;39187;48.476;8.310;2023-04-21T08:34:07;90721.94;;;13.02;56.89
53300;BME280;39187;48.476;8.310;2023-04-21T08:36:33;90719.47;;;13.57;55.88
53300;BME280;39187;48.476;8.310;2023-04-21T08:38:58;90718.75;;;13.25;55.70
53300;BME280;39187;48.476;8.310;2023-04-21T08:41:25;90732.88;;;13.26;55.74
53300;BME280;39187;48.476;8.310;2023-04-21T08:43:50;90713.84;;;12.53;57.34
53300;BME280;39187;48.476;8.310;2023-04-21T08:46:16;90719.66;;;13.32;57.00
53300;BME280;39187;48.476;8.310;2023-04-21T08:48:45;90723.94;;;13.69;56.16
53300;BME280;39187;48.476;8.310;2023-04-21T08:51:15;90718.13;;;14.16;55.21
53300;BME280;39187;48.476;8.310;2023-04-21T08:53:42;90711.13;;;13.55;53.80
53300;BME280;39187;48.476;8.310;2023-04-21T08:56:08;90709.00;;;13.01;54.97
53300;BME280;39187;48.476;8.310;2023-04-21T08:58:34;90702.44;;;13.33;55.37
53300;BME280;39187;48.476;8.310;2023-04-21T09:00:59;90704.47;;;13.87;53.62
53300;BME280;39187;48.476;8.310;2023-04-21T09:03:26;90703.19;;;13.24;54.54
53300;BME280;39187;48.476;8.310;2023-04-21T09:06:00;90705.13;;;13.33;54.17
53300;BME280;39187;48.476;8.310;2023-04-21T09:08:26;90701.59;;;13.36;53.16
53300;BME280;39187;48.476;8.310;2023-04-21T09:10:54;90700.56;;;13.42;54.66
53300;BME280;39187;48.476;8.310;2023-04-21T09:13:20;90692.84;;;13.53;53.05
53300;BME280;39187;48.476;8.310;2023-04-21T09:15:49;90692.22;;;12.91;54.03
53300;BME280;39187;48.476;8.310;2023-04-21T09:18:20;90691.06;;;13.50;54.57
53300;BME280;39187;48.476;8.310;2023-04-21T09:20:49;90695.91;;;13.24;54.59
53300;BME280;39187;48.476;8.310;2023-04-21T09:23:15;90695.81;;;13.55;53.24
53300;BME280;39187;48.476;8.310;2023-04-21T09:25:43;90699.88;;;13.87;53.64
53300;BME280;39187;48.476;8.310;2023-04-21T09:28:10;90696.16;;;13.76;53.39
53300;BME280;39187;48.476;8.310;2023-04-21T09:30:37;90690.28;;;13.32;55.75
53300;BME280;39187;48.476;8.310;2023-04-21T09:33:03;90695.06;;;12.97;55.70
53300;BME280;39187;48.476;8.310;2023-04-21T09:35:32;90697.44;;;13.53;55.01
53300;BME280;39187;48.476;8.310;2023-04-21T09:38:00;90692.72;;;13.08;57.56
53300;BME280;39187;48.476;8.310;2023-04-21T09:40:28;90700.13;;;13.04;59.10
53300;BME280;39187;48.476;8.310;2023-04-21T09:42:53;90696.16;;;13.76;57.40
53300;BME280;39187;48.476;8.310;2023-04-21T09:45:19;90696.41;;;13.50;55.99
53300;BME280;39187;48.476;8.310;2023-04-21T09:47:49;90707.00;;;13.81;56.63
53300;BME280;39187;48.476;8.310;2023-04-21T09:50:16;90707.03;;;13.23;58.36
53300;BME280;39187;48.476;8.310;2023-04-21T09:52:42;90702.38;;;13.05;59.00
53300;BME280;39187;48.476;8.310;2023-04-21T09:55:11;90703.00;;;12.78;60.39
53300;BME280;39187;48.476;8.310;2023-04-21T09:57:38;90704.13;;;12.99;58.71
53300;BME280;39187;48.476;8.310;2023-04-21T10:00:06;90701.56;;;12.87;56.77
53300;BME280;39187;48.476;8.310;2023-04-21T10:02:35;90695.16;;;12.84;57.03
53300;BME280;39187;48.476;8.310;2023-04-21T10:05:06;90688.00;;;12.81;58.44
53300;BME280;39187;48.476;8.310;2023-04-21T10:07:31;90695.59;;;12.52;59.74
53300;BME280;39187;48.476;8.310;2023-04-21T10:09:58;90690.31;;;12.61;60.34
53300;BME280;39187;48.476;8.310;2023-04-21T10:12:25;90695.47;;;12.95;60.47
53300;BME280;39187;48.476;8.310;2023-04-21T10:14:53;90694.88;;;12.91;60.34
53300;BME280;39187;48.476;8.310;2023-04-21T10:17:22;90703.22;;;12.10;64.87
53300;BME280;39187;48.476;8.310;2023-04-21T10:19:55;90710.69;;;11.80;69.17
53300;BME280;39187;48.476;8.310;2023-04-21T10:22:31;90705.38;;;12.02;68.99
53300;BME280;39187;48.476;8.310;2023-04-21T10:24:59;90706.50;;;11.45;74.52
53300;BME280;39187;48.476;8.310;2023-04-21T10:27:41;90700.06;;;11.08;75.66
53300;BME280;39187;48.476;8.310;2023-04-21T10:30:18;90707.09;;;11.61;70.72
53300;BME280;39187;48.476;8.310;2023-04-21T10:32:44;90702.78;;;11.30;72.04
53300;BME280;39187;48.476;8.310;2023-04-21T10:35:16;90700.03;;;11.68;71.71
53300;BME280;39187;48.476;8.310;2023-04-21T10:37:49;90704.59;;;11.45;68.66
53300;BME280;39187;48.476;8.310;2023-04-21T10:42:55;90694.16;;;12.29;65.68
53300;BME280;39187;48.476;8.310;2023-04-21T10:45:24;90703.56;;;11.99;66.97
53300;BME280;39187;48.476;8.310;2023-04-21T10:47:51;90700.72;;;12.68;65.81
53300;BME280;39187;48.476;8.310;2023-04-21T10:50:29;90689.94;;;11.97;64.11
53300;BME280;39187;48.476;8.310;2023-04-21T10:52:59;90699.06;;;13.41;61.67
53300;BME280;39187;48.476;8.310;2023-04-21T10:55:32;90709.72;;;12.09;64.23
53300;BME280;39187;48.476;8.310;2023-04-21T10:58:01;90701.69;;;11.40;68.17
53300;BME280;39187;48.476;8.310;2023-04-21T11:00:27;90693.88;;;11.58;70.07
53300;BME280;39187;48.476;8.310;2023-04-21T11:02:54;90683.34;;;11.54;67.50
53300;BME280;39187;48.476;8.310;2023-04-21T11:05:27;90701.50;;;11.34;70.57
53300;BME280;39187;48.476;8.310;2023-04-21T11:08:04;90692.78;;;11.21;74.65
53300;BME280;39187;48.476;8.310;2023-04-21T11:10:41;90703.97;;;11.29;76.94
53300;BME280;39187;48.476;8.310;2023-04-21T11:13:07;90696.66;;;10.95;75.37
53300;BME280;39187;48.476;8.310;2023-04-21T11:15:32;90696.44;;;10.89;77.35
53300;BME280;39187;48.476;8.310;2023-04-21T11:17:58;90696.88;;;11.00;77.48
53300;BME280;39187;48.476;8.310;2023-04-21T11:20:23;90695.47;;;11.08;82.90
53300;BME280;39187;48.476;8.310;2023-04-21T11:22:51;90697.09;;;10.68;74.84
53300;BME280;39187;48.476;8.310;2023-04-21T11:25:17;90694.88;;;10.66;76.67
53300;BME280;39187;48.476;8.310;2023-04-21T11:27:55;90683.59;;;10.62;76.41
53300;BME280;39187;48.476;8.310;2023-04-21T11:30:30;90682.63;;;10.81;78.82
53300;BME280;39187;48.476;8.310;2023-04-21T11:32:57;90697.41;;;10.95;75.19
53300;BME280;39187;48.476;8.310;2023-04-21T11:35:22;90683.59;;;10.50;76.42
53300;BME280;39187;48.476;8.310;2023-04-21T11:37:49;90691.63;;;10.33;76.44
53300;BME280;39187;48.476;8.310;2023-04-21T11:40:16;90686.97;;;10.50;76.37
53300;BME280;39187;48.476;8.310;2023-04-21T11:42:41;90692.41;;;10.59;78.22
53300;BME280;39187;48.476;8.310;2023-04-21T11:45:07;90689.22;;;10.64;78.89
53300;BME280;39187;48.476;8.310;2023-04-21T11:47:40;90693.56;;;10.45;81.57
53300;BME280;39187;48.476;8.310;2023-04-21T11:50:06;90686.66;;;10.61;77.23
53300;BME280;39187;48.476;8.310;2023-04-21T11:52:33;90689.41;;;10.44;77.44
53300;BME280;39187;48.476;8.310;2023-04-21T11:55:11;90684.22;;;10.54;79.08
53300;BME280;39187;48.476;8.310;2023-04-21T11:57:40;90688.91;;;10.62;76.13
53300;BME280;39187;48.476;8.310;2023-04-21T12:00:08;90691.13;;;10.76;77.17
53300;BME280;39187;48.476;8.310;2023-04-21T12:02:37;90690.06;;;10.87;70.00
53300;BME280;39187;48.476;8.310;2023-04-21T12:07:35;90681.31;;;11.11;70.97
53300;BME280;39187;48.476;8.310;2023-04-21T12:10:01;90695.38;;;11.12;69.27
53300;BME280;39187;48.476;8.310;2023-04-21T12:12:36;90684.00;;;10.99;69.90
53300;BME280;39187;48.476;8.310;2023-04-21T12:15:02;90696.84;;;11.25;71.79
53300;BME280;39187;48.476;8.310;2023-04-21T12:17:37;90690.03;;;11.12;70.45
53300;BME280;39187;48.476;8.310;2023-04-21T12:20:04;90688.75;;;11.16;72.78
53300;BME280;39187;48.476;8.310;2023-04-21T12:22:30;90687.66;;;11.26;71.14
53300;BME280;39187;48.476;8.310;2023-04-21T12:24:56;90701.84;;;11.23;73.25
53300;BME280;39187;48.476;8.310;2023-04-21T12:27:21;90698.03;;;11.12;69.24
53300;BME280;39187;48.476;8.310;2023-04-21T12:29:47;90704.00;;;10.91;71.34
53300;BME280;39187;48.476;8.310;2023-04-21T12:32:14;90704.41;;;11.02;72.38
53300;BME280;39187;48.476;8.310;2023-04-21T12:34:39;90700.94;;;10.92;70.10
53300;BME280;39187;48.476;8.310;2023-04-21T12:37:05;90699.22;;;10.98;71.55
53300;BME280;39187;48.476;8.310;2023-04-21T12:39:32;90707.75;;;11.06;71.35
53300;BME280;39187;48.476;8.310;2023-04-21T12:41:58;90698.66;;;11.16;72.76
53300;BME280;39187;48.476;8.310;2023-04-21T12:44:24;90705.16;;;11.15;72.02
53300;BME280;39187;48.476;8.310;2023-04-21T12:46:50;90700.59;;;11.03;72.47
53300;BME280;39187;48.476;8.310;2023-04-21T12:49:17;90696.97;;;11.09;71.93
53300;BME280;39187;48.476;8.310;2023-04-21T12:51:43;90702.91;;;11.26;73.30
53300;BME280;39187;48.476;8.310;2023-04-21T12:54:10;90709.75;;;11.61;74.41
53300;BME280;39187;48.476;8.310;2023-04-21T12:56:36;90689.56;;;11.73;72.02
53300;BME280;39187;48.476;8.310;2023-04-21T12:59:04;90687.13;;;11.66;71.94
53300;BME280;39187;48.476;8.310;2023-04-21T13:01:30;90678.38;;;11.65;70.86
53300;BME280;39187;48.476;8.310;2023-04-21T13:03:55;90680.16;;;11.47;69.05
53300;BME280;39187;48.476;8.310;2023-04-21T13:06:20;90685.75;;;11.74;70.71
53300;BME280;39187;48.476;8.310;2023-04-21T13:08:47;90688.19;;;11.81;70.68
53300;BME280;39187;48.476;8.310;2023-04-21T13:11:12;90675.28;;;11.67;68.46
53300;BME280;39187;48.476;8.310;2023-04-21T13:13:38;90682.13;;;11.68;68.20
53300;BME280;39187;48.476;8.310;2023-04-21T13:16:04;90690.59;;;11.54;69.60
53300;BME280;39187;48.476;8.310;2023-04-21T13:18:31;90686.84;;;11.64;69.72
53300;BME280;39187;48.476;8.310;2023-04-21T13:20:56;90680.84;;;11.60;69.47
53300;BME280;39187;48.476;8.310;2023-04-21T13:23:22;90685.34;;;11.63;72.15
53300;BME280;39187;48.476;8.310;2023-04-21T13:25:48;90686.50;;;11.75;70.79
53300;BME280;39187;48.476;8.310;2023-04-21T13:28:15;90686.88;;;11.73;70.17